Flight Track Log - Related Links

Times and Time Zones

All times are in EDT time to prevent confusion due to time zone crossing. See the EJA922 flight status page for this flight to view local times or setup timezone preferences in your user account.

Time Position Orientation Groundspeed Altitude Reporting Facility
EDT Latitude Longitude Course Direction KTS MPH feet Rate Location/Type
Fri 01:06:59 PM 35.5297 -82.5433 41° Northeast 221 254 8,400  Level Atlanta Center
Fri 01:07:59 PM 35.5833 -82.4861 41° Northeast 239 275 10,000 1,750 Climbing Atlanta Center
Fri 01:08:59 PM 35.6172 -82.3706 70° East 285 328 11,900 2,800 Climbing Atlanta Center
Fri 01:09:59 PM 35.7086 -82.3456 13° North 293 337 15,600 3,800 Climbing Atlanta Center
Fri 01:10:59 PM 35.8025 -82.3336 North 310 357 19,500 3,300 Climbing Atlanta Center
Fri 01:11:59 PM 35.8878 -82.3164 North 310 357 22,200 2,350 Climbing Atlanta Center
Fri 01:12:59 PM 35.9792 -82.3017 North 318 366 24,200 2,000 Climbing Atlanta Center
Fri 01:13:59 PM 36.0683 -82.2611 20° North 331 381 26,200 1,900 Climbing Atlanta Center
Fri 01:14:59 PM 36.1064 -82.1628 64° Northeast 324 373 28,000 1,900 Climbing Atlanta Center
Fri 01:15:59 PM 36.1317 -82.0308 77° East 335 386 30,000 2,050 Climbing Atlanta Center
Fri 01:16:59 PM 36.1583 -81.8967 76° East 364 419 32,100 2,000 Climbing Atlanta Center
Fri 01:17:59 PM 36.1831 -81.7622 77° East 386 444 34,000 1,700 Climbing Atlanta Center
Fri 01:18:59 PM 36.2136 -81.6172 75° East 410 472 35,500 1,550 Climbing Atlanta Center
Fri 01:19:59 PM 36.2608 -81.4742 68° East 427 491 37,100 1,550 Climbing Atlanta Center
Fri 01:20:59 PM 36.3142 -81.3281 66° East 440 506 38,600 1,500 Climbing Atlanta Center
Fri 01:21:59 PM 36.3378 -81.1728 79° East 450 518 40,100 1,200 Climbing Atlanta Center
Fri 01:22:59 PM 36.3650 -81.0119 78° East 461 531 41,000 450 Climbing Atlanta Center
Fri 01:23:59 PM 36.3922 -80.8483 78° East 471 542 41,000  Level Atlanta Center
Fri 01:24:59 PM 36.4225 -80.6589 79° East 485 558 41,000  Level Atlanta Center
Fri 01:27:22 PM 36.4919 -80.2269 79° East 526 605 41,000  Level Washington Center
Fri 01:28:23 PM 36.5217 -80.0506 78° East 524 603 41,000  Level Washington Center
Fri 01:29:21 PM 36.5772 -79.9011 65° Northeast 524 603 41,000  Level Washington Center
Fri 01:30:22 PM 36.6628 -79.7219 59° Northeast 531 611 41,000  Level Washington Center
Fri 01:31:23 PM 36.7303 -79.5778 60° Northeast 536 617 41,000  Level Washington Center
Fri 01:32:23 PM 36.8131 -79.4031 59° Northeast 530 610 41,000  Level Washington Center
Fri 01:33:21 PM 36.8781 -79.2583 61° Northeast 530 610 41,000  Level Washington Center
Fri 01:34:22 PM 36.9606 -79.0803 60° Northeast 530 610 41,000  Level Washington Center
Fri 01:35:22 PM 37.0253 -78.9400 60° Northeast 530 610 41,000  Level Washington Center
Fri 01:36:20 PM 37.1072 -78.7639 60° Northeast 530 610 41,000 -353 Level Washington Center
Fri 01:37:21 PM 37.1800 -78.6053 60° Northeast 522 601 40,300 -1,082 Descending Washington Center
Fri 01:38:22 PM 37.2528 -78.4464 60° Northeast 522 601 38,800 -1,623 Descending Washington Center
Fri 01:39:23 PM 37.3253 -78.2897 60° Northeast 516 594 37,000 -1,934 Descending Washington Center
Fri 01:40:23 PM 37.4281 -78.1653 44° Northeast 522 601 34,900 -2,390 Descending Washington Center
Fri 01:41:21 PM 37.5264 -78.0558 41° Northeast 515 593 32,300 -2,471 Descending Washington Center
Fri 01:42:22 PM 37.6372 -77.9364 40° Northeast 515 593 30,000 -1,131 Descending Washington Center
Fri 01:43:23 PM 37.7481 -77.8136 41° Northeast 520 598 30,000  Level Washington Center
Fri 01:44:21 PM 37.8608 -77.6908 41° Northeast 520 598 30,000  Level Washington Center
Fri 01:45:22 PM 37.9756 -77.5647 41° Northeast 525 604 30,000  Level Washington Center
Fri 01:46:23 PM 38.1008 -77.4256 41° Northeast 530 610 30,000  Level Washington Center
Fri 01:47:20 PM 38.1928 -77.2747 52° Northeast 540 621 30,000  Level Washington Center
Fri 01:48:21 PM 38.2575 -77.1147 63° Northeast 550 633 30,000  Level Washington Center
Fri 01:49:22 PM 38.3533 -76.9447 54° Northeast 550 633 30,000 -443 Level Washington Center
Fri 01:50:23 PM 38.4711 -76.8408 35° Northeast 548 631 29,100 -504 Descending Washington Center
Fri 01:51:21 PM 38.6014 -76.7314 33° Northeast 553 636 29,000 -51 Descending Washington Center
Fri 01:52:21 PM 38.7317 -76.6242 33° Northeast 553 636 29,000  Level Washington Center
Fri 01:53:23 PM 38.8597 -76.5139 34° Northeast 553 636 29,000 -1,835 Level Washington Center
Fri 01:54:22 PM 38.9856 -76.4114 32° Northeast 553 636 25,300 -2,500 Descending Washington Center
Fri 01:55:23 PM 39.0925 -76.2978 39° Northeast 531 611 24,000 -655 Descending Washington Center
Fri 01:56:21 PM 39.1892 -76.1861 42° Northeast 490 564 24,000  Level Washington Center
Fri 01:57:21 PM 39.3064 -76.0611 40° Northeast 478 550 24,000 -1,745 Level Washington Center
Fri 01:59:37 PM 39.5667 -75.8167 36° Northeast 463 533 18,300 -2,481 Descending Philadelphia TRACON
Fri 02:00:49 PM 39.6833 -75.7000 38° Northeast 437 503 15,400 -2,364 Descending Philadelphia TRACON
Fri 02:01:49 PM 39.7833 -75.6167 33° Northeast 437 503 13,100 -1,150 Descending Philadelphia TRACON
Fri 02:02:49 PM 39.8833 -75.5167 37° Northeast 437 503 13,100  Level Philadelphia TRACON
Fri 02:03:43 PM 39.9667 -75.4333 37° Northeast 448 516 13,100  Level Philadelphia TRACON
Fri 02:04:49 PM 40.0833 -75.3333 33° Northeast 439 505 13,100 -99 Level Philadelphia TRACON
Fri 02:05:44 PM 40.1667 -75.2500 37° Northeast 435 501 12,900 -1,140 Descending Philadelphia TRACON
Fri 02:06:50 PM 40.2667 -75.1667 32° Northeast 371 427 10,800 -1,913 Descending Philadelphia TRACON
Fri 02:08:24 PM 40.3667 -75.0500 42° Northeast 308 354 7,800 -1,519 Descending New York TRACON
Fri 02:09:24 PM 40.4167 -74.9667 52° Northeast 282 325 6,900 -1,350 Descending New York TRACON
Fri 02:10:24 PM 40.4833 -74.8833 44° Northeast 289 333 5,100 -1,450 Descending New York TRACON
Fri 02:11:24 PM 40.5333 -74.8167 45° Northeast 276 318 4,000 -500 Descending New York TRACON
Fri 02:12:24 PM 40.5833 -74.7667 37° Northeast 258 297 4,100 50 Climbing New York TRACON
Fri 02:13:24 PM 40.6500 -74.7000 37° Northeast 282 325 4,100  Level New York TRACON
Fri 02:14:24 PM 40.7167 -74.6333 37° Northeast 280 322 4,100 -238 Level New York TRACON
Fri 02:15:30 PM 40.7833 -74.5833 30° Northeast 271 312 3,600 -550 Descending New York TRACON
Fri 02:16:24 PM 40.8333 -74.5333 37° Northeast 262 302 3,000 -250 Descending New York TRACON
Fri 02:17:30 PM 40.9000 -74.4667 37° Northeast 266 306 3,100  Climbing New York TRACON
Fri 02:18:24 PM 40.9333 -74.4000 56° Northeast 271 312 3,000 -316 Descending New York TRACON
Fri 02:19:24 PM 40.9667 -74.3000 66° East 267 307 2,500 -500 Descending New York TRACON
Fri 02:20:24 PM 40.9833 -74.2167 75° East 229 264 2,000 -250 Descending New York TRACON
Fri 02:21:24 PM 41.0000 -74.1333 75° East 236 272 2,000 50 Level New York TRACON
Fri 02:22:24 PM 41.0000 -74.0667 90° East 225 259 2,100 50 Climbing New York TRACON
Fri 02:23:24 PM 40.9667 -74.0500 159° South 163 188 2,100 -350 Level New York TRACON
Fri 02:24:24 PM 40.9167 -74.0500 180° South 146 168 1,400 -750 Descending New York TRACON
Fri 02:25:24 PM 40.8833 -74.0500 180° South 140 161 600 -800 Descending New York TRACON

Login

Don't have an account? Register now (free) for customized features, flight alerts, and more!